Time;durP1;ratioP1;P1;durP2;ratioP2;P2;SDS_P1;SDS_P2;PMS_P1;PMS_P2;Temp;Humidity;BMP_temperature;BMP_pressure;BME280_temperature;BME280_humidity;BME280_pressure;Samples;Min_cycle;Max_cycle;Signal;HPM_P1;HPM_P2
2023/06/29 00:00:16;;;;;;;5.72;2.55;;;;;;;21.18;52.97;100621.53;4170643;28;20064;-69
2023/06/29 00:02:19;;;;;;;5.22;2.08;;;;;;;21.17;53.07;100625.06;4158579;28;20128;-69
2023/06/29 00:04:25;;;;;;;4.47;2.17;;;;;;;21.17;53.31;100627.72;4172390;28;20564;-69
2023/06/29 00:06:31;;;;;;;4.88;2.75;;;;;;;21.17;53.48;100626.84;4164351;28;20080;-69
2023/06/29 00:08:35;;;;;;;6.95;2.55;;;;;;;21.12;53.66;100629.63;4189213;28;20036;-70
2023/06/29 00:10:39;;;;;;;;;;;;;;;20.97;54.14;100630.91;4185200;28;20049;-69
2023/06/29 00:12:42;;;;;;;4.35;2.50;;;;;;;20.95;54.11;100626.56;4168680;28;19931;-69
2023/06/29 00:14:45;;;;;;;4.65;2.60;;;;;;;20.97;54.16;100622.97;4190102;28;20044;-69
2023/06/29 00:16:50;;;;;;;6.72;2.83;;;;;;;20.99;54.18;100626.44;4186434;28;20441;-69
2023/06/29 00:18:55;;;;;;;6.03;2.50;;;;;;;20.98;54.30;100619.41;4163711;28;20053;-68
2023/06/29 00:20:57;;;;;;;;;;;;;;;20.91;54.64;100623.16;4186943;28;20074;-69
2023/06/29 00:23:00;;;;;;;7.60;2.80;;;;;;;20.99;54.49;100630.88;4171994;28;19927;-69
2023/06/29 00:25:04;;;;;;;7.97;3.22;;;;;;;21.03;54.55;100629.88;4166483;28;20132;-69
2023/06/29 00:27:07;;;;;;;7.63;2.93;;;;;;;21.02;54.77;100628.16;4190080;28;20462;-69
2023/06/29 00:29:10;;;;;;;6.80;2.80;;;;;;;21.01;55.09;100623.75;4185028;28;20033;-69
2023/06/29 00:31:13;;;;;;;5.25;3.10;;;;;;;20.98;55.28;100614.13;4184377;28;20049;-69
2023/06/29 00:33:17;;;;;;;7.28;3.33;;;;;;;20.96;55.76;100617.75;4186348;28;20499;-69
2023/06/29 00:35:20;;;;;;;8.27;2.97;;;;;;;20.90;55.87;100616.97;4180591;28;20098;-68
2023/06/29 00:37:23;;;;;;;7.43;3.20;;;;;;;20.87;56.10;100619.69;4181282;28;20068;-68
2023/06/29 00:39:26;;;;;;;5.82;2.80;;;;;;;20.84;56.62;100617.16;4178002;22;20064;-75
2023/06/29 00:41:29;;;;;;;5.47;2.85;;;;;;;20.82;56.84;100618.97;4194492;28;20461;-76
2023/06/29 00:43:32;;;;;;;8.75;2.85;;;;;;;20.82;57.15;100612.81;4193396;28;20387;-75
2023/06/29 00:45:35;;;;;;;5.22;2.90;;;;;;;20.74;57.07;100605.94;4180310;28;20036;-76
2023/06/29 00:47:40;;;;;;;11.15;3.17;;;;;;;20.83;56.70;100615.41;4194261;28;20036;-76
2023/06/29 00:49:44;;;;;;;5.82;2.85;;;;;;;20.81;57.25;100614.59;4190527;28;20032;-77
2023/06/29 00:51:50;;;;;;;6.50;3.03;;;;;;;20.76;57.63;100621.75;4192749;28;20067;-76
2023/06/29 00:53:54;;;;;;;4.68;2.55;;;;;;;20.68;57.83;100619.31;4161708;28;20048;-76
2023/06/29 00:55:58;;;;;;;6.25;2.70;;;;;;;20.62;58.20;100610.63;4160353;28;20123;-77
2023/06/29 00:58:02;;;;;;;5.10;2.92;;;;;;;20.62;58.25;100616.78;4178695;28;20449;-76
2023/06/29 01:00:10;;;;;;;6.63;2.83;;;;;;;20.63;58.02;100620.28;4161751;28;20045;-76
2023/06/29 01:02:15;;;;;;;5.57;2.95;;;;;;;20.58;58.35;100612.50;4180043;28;20049;-77
2023/06/29 01:04:24;;;;;;;7.85;3.10;;;;;;;20.58;58.71;100610.72;4188295;28;20033;-76
2023/06/29 01:06:32;;;;;;;7.43;3.47;;;;;;;20.56;59.34;100603.75;4190647;28;20033;-76
2023/06/29 01:08:40;;;;;;;6.65;3.50;;;;;;;20.56;59.56;100599.31;4188701;28;20043;-76
2023/06/29 01:10:46;;;;;;;7.97;3.03;;;;;;;20.55;59.47;100592.28;4171942;28;20499;-76
2023/06/29 01:12:51;;;;;;;6.72;3.30;;;;;;;20.54;59.66;100595.84;4189159;28;20071;-76
2023/06/29 01:14:55;;;;;;;;;;;;;;;20.39;60.17;100598.88;4177514;28;20037;-76
2023/06/29 01:16:59;;;;;;;7.38;2.78;;;;;;;20.41;59.87;100599.69;4176608;28;20386;-76
2023/06/29 01:19:05;;;;;;;8.15;3.47;;;;;;;20.46;60.04;100600.47;4172494;28;20060;-76
2023/06/29 01:21:08;;;;;;;7.03;3.20;;;;;;;20.52;60.23;100599.44;4189368;28;20033;-76
2023/06/29 01:23:18;;;;;;;6.47;3.50;;;;;;;20.52;60.20;100594.16;4190919;28;20524;-75
2023/06/29 01:25:22;;;;;;;5.57;3.20;;;;;;;20.45;60.49;100588.16;4191921;28;20098;-75
2023/06/29 01:27:25;;;;;;;;;;;;;;;20.24;61.17;100594.84;4179408;28;20033;-75
2023/06/29 01:29:31;;;;;;;7.93;3.40;;;;;;;20.16;61.32;100600.28;4200977;28;20456;-75
2023/06/29 01:31:34;;;;;;;7.78;3.17;;;;;;;20.15;60.84;100592.38;4188305;28;20064;-75
2023/06/29 01:33:37;;;;;;;7.57;3.35;;;;;;;20.14;61.30;100588.03;4176185;28;20520;-75
2023/06/29 01:35:40;;;;;;;6.65;3.13;;;;;;;20.10;60.90;100591.66;4172805;28;20409;-75
2023/06/29 01:37:51;;;;;;;7.65;3.35;;;;;;;20.04;61.01;100587.38;4176439;28;20044;-76
2023/06/29 01:39:59;;;;;;;10.65;3.70;;;;;;;19.96;61.23;100590.19;4190899;28;20051;-76
2023/06/29 01:42:04;;;;;;;9.10;3.17;;;;;;;19.91;62.15;100585.91;4178191;28;20041;-77
2023/06/29 01:44:11;;;;;;;9.68;3.55;;;;;;;19.87;62.14;100588.63;4195970;28;20557;-77
2023/06/29 01:46:15;;;;;;;10.95;3.85;;;;;;;19.83;62.50;100583.44;4174211;28;20040;-77
2023/06/29 01:48:20;;;;;;;6.53;3.60;;;;;;;19.75;62.99;100591.50;4188897;28;20124;-76
2023/06/29 01:50:23;;;;;;;7.35;3.58;;;;;;;19.57;63.55;100573.44;4168582;28;20045;-76
2023/06/29 01:52:27;;;;;;;11.30;3.65;;;;;;;19.62;63.73;100585.59;4182280;28;20037;-76
2023/06/29 01:54:30;;;;;;;10.20;3.53;;;;;;;19.60;63.53;100590.06;4196245;28;20048;-76
2023/06/29 01:56:33;;;;;;;9.10;3.97;;;;;;;19.57;64.36;100586.63;4187391;28;20033;-76
2023/06/29 01:58:39;;;;;;;8.20;3.63;;;;;;;19.68;63.92;100585.50;4176152;28;20470;-76
2023/06/29 02:00:42;;;;;;;14.70;4.10;;;;;;;19.67;63.64;100582.88;4170604;28;20045;-76
2023/06/29 02:02:45;;;;;;;8.90;3.85;;;;;;;19.67;63.63;100583.75;4178577;28;20044;-76
2023/06/29 02:04:48;;;;;;;9.68;3.95;;;;;;;19.65;63.97;100584.69;4195114;28;20040;-77
2023/06/29 02:06:51;;;;;;;12.63;4.20;;;;;;;19.66;64.09;100587.28;4196213;28;20505;-77
2023/06/29 02:08:54;;;;;;;8.52;3.88;;;;;;;19.68;63.60;100582.84;4178606;28;20069;-76
2023/06/29 02:10:57;;;;;;;8.73;3.85;;;;;;;19.68;63.56;100584.59;4178679;28;20061;-76
2023/06/29 02:13:00;;;;;;;15.23;4.05;;;;;;;19.73;63.43;100588.03;4178928;28;20095;-76
2023/06/29 02:15:05;;;;;;;8.57;3.45;;;;;;;19.73;63.61;100593.31;4174074;28;20063;-76
2023/06/29 02:17:07;;;;;;;6.78;3.40;;;;;;;19.68;63.61;100585.50;4177504;28;20045;-76
2023/06/29 02:19:10;;;;;;;6.90;3.13;;;;;;;19.66;63.48;100584.63;4173956;28;20041;-78
2023/06/29 02:21:14;;;;;;;11.80;3.47;;;;;;;19.66;63.52;100581.16;4176309;28;20044;-77
2023/06/29 02:23:17;;;;;;;7.68;3.58;;;;;;;19.62;63.49;100584.75;4162791;28;20477;-77
2023/06/29 02:25:24;;;;;;;10.13;4.00;;;;;;;19.59;63.80;100576.91;4157691;28;20041;-76
2023/06/29 02:27:30;;;;;;;7.03;3.83;;;;;;;19.62;63.64;100584.75;4173031;28;20336;-76
2023/06/29 02:29:34;;;;;;;8.82;3.42;;;;;;;19.64;63.65;100577.66;4170845;28;20037;-76
2023/06/29 02:31:38;;;;;;;8.00;3.38;;;;;;;19.67;63.38;100573.19;4188766;28;20135;-76
2023/06/29 02:33:42;;;;;;;5.85;3.72;;;;;;;19.66;63.16;100581.16;4161052;28;20041;-76
2023/06/29 02:35:45;;;;;;;7.20;3.58;;;;;;;19.63;62.96;100578.56;4160789;28;20049;-75
2023/06/29 02:37:48;;;;;;;8.25;3.58;;;;;;;19.61;62.83;100573.34;4170832;28;20043;-75
2023/06/29 02:39:54;;;;;;;7.97;4.05;;;;;;;19.62;62.54;100574.19;4168106;28;20057;-75
2023/06/29 02:41:57;;;;;;;6.50;3.03;;;;;;;19.62;62.77;100575.06;4193824;28;20522;-74
2023/06/29 02:44:01;;;;;;;11.45;3.90;;;;;;;19.67;62.73;100573.19;4190959;28;20433;-74
2023/06/29 02:46:04;;;;;;;8.48;3.60;;;;;;;19.70;62.37;100567.00;4167914;28;20162;-76
2023/06/29 02:48:11;;;;;;;10.02;4.10;;;;;;;19.70;62.48;100567.00;4177562;28;20459;-76
2023/06/29 02:50:14;;;;;;;5.55;3.15;;;;;;;19.69;62.47;100571.38;4178160;28;20036;-77
2023/06/29 02:52:22;;;;;;;6.50;3.45;;;;;;;19.54;62.28;100567.31;4151734;28;20435;-77
2023/06/29 02:54:25;;;;;;;5.20;2.83;;;;;;;19.41;62.84;100572.91;4173000;28;20067;-76
2023/06/29 02:56:28;;;;;;;6.72;3.63;;;;;;;19.32;63.21;100560.75;4176293;28;20029;-77
2023/06/29 02:58:31;;;;;;;8.57;3.50;;;;;;;19.37;62.96;100564.16;4177676;28;20044;-76
2023/06/29 03:00:35;;;;;;;7.30;3.25;;;;;;;19.38;62.91;100555.34;4178661;28;20043;-76
2023/06/29 03:02:38;;;;;;;9.18;3.38;;;;;;;19.39;63.34;100557.09;4174022;28;20104;-76
2023/06/29 03:04:44;;;;;;;8.52;3.30;;;;;;;19.38;63.33;100552.72;4176852;28;20037;-77
2023/06/29 03:06:47;;;;;;;7.20;3.33;;;;;;;19.32;63.88;100561.63;4190085;28;20040;-77
2023/06/29 03:08:50;;;;;;;10.77;4.10;;;;;;;19.27;64.11;100552.94;4175982;28;20148;-76
2023/06/29 03:10:53;;;;;;;9.13;3.80;;;;;;;19.31;63.90;100553.75;4195045;28;20048;-76
2023/06/29 03:12:56;;;;;;;6.68;3.55;;;;;;;19.31;63.99;100548.47;4177396;28;20496;-76
2023/06/29 03:14:59;;;;;;;7.53;3.70;;;;;;;19.32;64.04;100544.94;4188334;28;20033;-77
2023/06/29 03:17:02;;;;;;;7.85;3.10;;;;;;;19.27;63.99;100550.28;4194881;28;20044;-76
2023/06/29 03:19:05;;;;;;;9.18;3.25;;;;;;;19.13;64.58;100545.31;4191896;28;20071;-76
2023/06/29 03:21:09;;;;;;;7.10;3.63;;;;;;;19.16;64.49;100550.53;4176806;28;20033;-76
2023/06/29 03:23:20;;;;;;;6.70;3.42;;;;;;;19.16;64.59;100557.56;4191317;28;20067;-77
2023/06/29 03:25:23;;;;;;;6.63;2.95;;;;;;;19.17;64.46;100552.25;4190316;28;20039;-77
2023/06/29 03:27:26;;;;;;;8.75;3.55;;;;;;;19.12;64.72;100542.72;4192297;28;20039;-76
2023/06/29 03:29:28;;;;;;;6.38;3.30;;;;;;;19.14;64.29;100547.06;4194642;28;20037;-76
2023/06/29 03:31:32;;;;;;;9.73;3.78;;;;;;;19.10;64.26;100541.84;4188417;28;20039;-76
2023/06/29 03:33:35;;;;;;;6.80;3.28;;;;;;;19.18;64.23;100553.13;4194245;28;20037;-76
2023/06/29 03:35:37;;;;;;;8.82;4.15;;;;;;;19.23;64.74;100550.38;4194533;28;20502;-76
2023/06/29 03:37:42;;;;;;;10.15;3.63;;;;;;;19.22;64.42;100559.22;4191420;28;20043;-76
2023/06/29 03:39:45;;;;;;;8.40;3.42;;;;;;;19.17;64.48;100552.25;4173182;28;20036;-75
2023/06/29 03:41:48;;;;;;;9.48;3.33;;;;;;;19.17;64.68;100557.53;4175480;28;20053;-76
2023/06/29 03:43:51;;;;;;;7.28;3.80;;;;;;;19.19;65.13;100554.88;4186635;28;20466;-76
2023/06/29 03:45:53;;;;;;;7.85;3.50;;;;;;;19.18;64.55;100551.34;4148549;28;20128;-75
2023/06/29 03:47:56;;;;;;;8.73;3.80;;;;;;;19.12;64.60;100569.91;4184659;28;20553;-75
2023/06/29 03:49:59;;;;;;;9.75;3.10;;;;;;;19.14;64.50;100565.50;4173677;28;20133;-75
2023/06/29 03:52:02;;;;;;;7.40;3.17;;;;;;;19.34;63.83;100557.19;4185306;28;20094;-68
2023/06/29 03:54:07;;;;;;;7.32;3.47;;;;;;;19.71;62.48;100548.50;4175955;28;20037;-67
2023/06/29 03:56:10;;;;;;;9.85;3.22;;;;;;;20.08;61.66;100546.81;4174659;28;20518;-68
2023/06/29 03:58:13;;;;;;;9.25;3.15;;;;;;;20.29;60.32;100541.91;4183749;28;20036;-67
2023/06/29 04:00:16;;;;;;;5.78;2.67;;;;;;;20.41;60.02;100544.22;4185243;28;20135;-68
2023/06/29 04:02:19;;;;;;;11.75;4.10;;;;;;;20.50;59.82;100549.31;4189508;28;20033;-68
2023/06/29 04:04:22;;;;;;;10.02;3.17;;;;;;;20.59;59.53;100542.91;4187541;28;20041;-68
2023/06/29 04:06:25;;;;;;;7.10;3.38;;;;;;;20.63;59.65;100538.41;4190715;28;20127;-68
2023/06/29 04:08:28;;;;;;;5.80;2.85;;;;;;;20.61;59.31;100532.31;4182843;28;20513;-69
2023/06/29 04:10:32;;;;;;;7.72;3.33;;;;;;;20.61;59.21;100534.94;4188424;28;20044;-69
2023/06/29 04:12:35;;;;;;;6.45;3.55;;;;;;;20.60;59.18;100533.22;4192073;28;20498;-68
2023/06/29 04:14:38;;;;;;;8.02;2.72;;;;;;;20.62;58.90;100541.94;4173804;28;20037;-68
2023/06/29 04:16:40;;;;;;;9.15;4.63;;;;;;;20.74;58.71;100539.03;4183778;28;20033;-68
2023/06/29 04:18:43;;;;;;;7.95;3.50;;;;;;;20.80;58.19;100536.22;4182559;28;20444;-68
2023/06/29 04:20:46;;;;;;;6.47;2.88;;;;;;;20.84;57.99;100531.72;4166602;28;20044;-68
2023/06/29 04:22:49;;;;;;;11.73;2.92;;;;;;;20.84;57.85;100537.00;4191297;28;20059;-68
2023/06/29 04:24:52;;;;;;;8.30;3.20;;;;;;;20.88;58.02;100536.88;4190949;28;20519;-68
2023/06/29 04:26:56;;;;;;;6.60;3.17;;;;;;;20.91;57.68;100534.16;4187595;28;20044;-68
2023/06/29 04:29:05;;;;;;;7.50;3.38;;;;;;;20.83;57.83;100530.84;4170828;28;20171;-68
2023/06/29 04:31:08;;;;;;;5.68;2.80;;;;;;;20.60;58.44;100528.78;4186255;28;20375;-68
2023/06/29 04:33:13;;;;;;;8.38;2.83;;;;;;;20.43;59.14;100531.00;4190726;28;20051;-67
2023/06/29 04:35:16;;;;;;;6.43;3.45;;;;;;;20.27;59.70;100527.88;4191193;28;20043;-67
2023/06/29 04:37:20;;;;;;;9.25;3.70;;;;;;;20.19;59.59;100538.63;4165848;28;20124;-67
2023/06/29 04:39:23;;;;;;;9.52;3.78;;;;;;;20.09;60.12;100532.69;4182322;28;20128;-68
2023/06/29 04:41:31;;;;;;;8.40;3.45;;;;;;;20.05;60.13;100536.34;4164424;28;20045;-67
2023/06/29 04:43:36;;;;;;;10.73;3.83;;;;;;;20.04;60.35;100529.31;4167063;28;20099;-67
2023/06/29 04:45:40;;;;;;;5.60;3.50;;;;;;;20.05;60.19;100529.28;4190435;28;20036;-67
2023/06/29 04:47:44;;;;;;;8.43;3.95;;;;;;;20.07;59.90;100542.44;4187783;28;20040;-67
2023/06/29 04:49:52;;;;;;;8.77;3.72;;;;;;;20.09;59.71;100540.59;4175425;28;20514;-68
2023/06/29 04:51:59;;;;;;;6.63;3.80;;;;;;;20.13;59.63;100539.63;4188306;28;20048;-68
2023/06/29 04:54:03;;;;;;;8.48;3.70;;;;;;;20.15;59.39;100537.84;4184550;28;20280;-67
2023/06/29 04:56:06;;;;;;;8.80;4.03;;;;;;;20.17;59.51;100536.03;4187827;28;20037;-67
2023/06/29 04:58:09;;;;;;;7.88;3.55;;;;;;;20.22;59.55;100534.16;4182846;28;20048;-67
2023/06/29 05:00:14;;;;;;;8.32;3.58;;;;;;;20.32;59.82;100523.34;4180907;28;20051;-67
2023/06/29 05:02:17;;;;;;;9.95;3.83;;;;;;;20.40;59.78;100529.31;4186746;28;20033;-67
2023/06/29 05:04:20;;;;;;;8.73;3.25;;;;;;;20.47;59.74;100525.63;4165424;28;20052;-68
2023/06/29 05:06:24;;;;;;;5.65;3.58;;;;;;;20.54;60.12;100526.31;4182847;28;20076;-68
2023/06/29 05:08:31;;;;;;;7.13;3.53;;;;;;;20.65;60.17;100528.69;4176790;28;20068;-68
2023/06/29 05:10:34;;;;;;;10.48;4.25;;;;;;;20.71;60.29;100526.75;4168880;28;20128;-67
2023/06/29 05:12:37;;;;;;;9.07;3.97;;;;;;;20.83;59.69;100530.84;4183657;28;20552;-67
2023/06/29 05:14:40;;;;;;;16.60;4.47;;;;;;;20.93;59.91;100527.03;4182742;28;20060;-67
2023/06/29 05:16:44;;;;;;;8.70;3.70;;;;;;;21.01;59.95;100521.56;4182334;28;20443;-67
2023/06/29 05:18:47;;;;;;;11.48;3.70;;;;;;;21.07;60.00;100520.50;4191445;28;20127;-67
2023/06/29 05:20:50;;;;;;;11.52;3.55;;;;;;;21.15;60.07;100520.28;4182782;28;20040;-68
2023/06/29 05:22:53;;;;;;;8.35;3.10;;;;;;;21.21;59.76;100518.31;4185606;28;20043;-67
2023/06/29 05:24:55;;;;;;;9.73;4.22;;;;;;;21.20;58.64;100521.00;4186923;28;20536;-67
2023/06/29 05:26:58;;;;;;;10.68;4.68;;;;;;;21.20;58.27;100521.00;4189647;28;20040;-67
2023/06/29 05:29:02;;;;;;;12.98;4.95;;;;;;;21.24;57.85;100523.53;4183099;28;20451;-68
2023/06/29 05:31:08;;;;;;;7.97;3.75;;;;;;;21.26;58.14;100518.19;4190169;28;20443;-68
2023/06/29 05:33:12;;;;;;;11.68;4.10;;;;;;;21.24;57.65;100517.38;4191225;28;20054;-68
2023/06/29 05:35:15;;;;;;;;;;;;;;;21.20;58.00;100518.38;4186672;28;20475;-68
2023/06/29 05:37:18;;;;;;;9.45;3.55;;;;;;;21.28;57.83;100521.66;4192821;28;20373;-67
2023/06/29 05:39:21;;;;;;;11.82;4.20;;;;;;;21.38;57.47;100522.28;4186438;28;20071;-68
2023/06/29 05:41:23;;;;;;;15.10;4.45;;;;;;;21.43;57.39;100526.50;4191586;28;20467;-67
2023/06/29 05:43:26;;;;;;;7.50;3.72;;;;;;;21.50;57.42;100527.19;4188150;28;20124;-67
2023/06/29 05:45:29;;;;;;;11.85;3.92;;;;;;;21.54;57.52;100526.22;4195280;28;20033;-67
2023/06/29 05:47:32;;;;;;;9.77;4.32;;;;;;;21.65;56.89;100523.22;4186756;28;20394;-68
2023/06/29 05:49:36;;;;;;;5.90;3.53;;;;;;;21.69;56.56;100516.94;4187668;28;20060;-68
2023/06/29 05:51:40;;;;;;;8.02;4.22;;;;;;;21.69;56.24;100516.94;4185346;28;20408;-68
2023/06/29 05:53:43;;;;;;;12.10;4.22;;;;;;;21.76;56.67;100512.34;4175680;28;20039;-67
2023/06/29 05:55:47;;;;;;;7.88;3.78;;;;;;;21.85;56.66;100511.19;4192778;28;20598;-68
2023/06/29 05:57:49;;;;;;;5.32;3.50;;;;;;;21.92;56.80;100512.72;4188817;28;20037;-68
2023/06/29 05:59:52;;;;;;;8.77;3.65;;;;;;;21.89;56.97;100510.13;4190934;28;20041;-68
2023/06/29 06:01:55;;;;;;;6.78;4.00;;;;;;;21.89;56.64;100508.38;4194122;28;20037;-68
2023/06/29 06:03:58;;;;;;;9.18;4.15;;;;;;;21.93;56.62;100502.06;4189600;28;20100;-68
2023/06/29 06:06:03;;;;;;;11.85;3.97;;;;;;;22.04;56.69;100509.66;4184604;28;20045;-68
2023/06/29 06:08:05;;;;;;;8.68;4.43;;;;;;;22.09;55.35;100501.56;4187302;28;20033;-68
2023/06/29 06:10:09;;;;;;;9.68;4.88;;;;;;;22.17;54.64;100504.81;4194122;28;20516;-68
2023/06/29 06:12:12;;;;;;;10.00;4.90;;;;;;;22.24;54.58;100510.75;4195542;28;20131;-68
2023/06/29 06:14:15;;;;;;;9.60;4.35;;;;;;;22.35;53.65;100510.44;4194255;28;20190;-68
2023/06/29 06:16:18;;;;;;;11.43;5.15;;;;;;;22.43;53.78;100511.06;4186966;28;20550;-68
2023/06/29 06:18:20;;;;;;;12.60;4.78;;;;;;;22.51;53.87;100498.41;4186054;28;20033;-68
2023/06/29 06:20:23;;;;;;;9.32;4.00;;;;;;;22.61;54.26;100497.16;4188076;28;20877;-67
2023/06/29 06:22:27;;;;;;;8.57;4.22;;;;;;;22.69;53.65;100504.81;4189114;28;20132;-68
2023/06/29 06:24:30;;;;;;;10.25;4.07;;;;;;;22.78;54.00;100503.63;4191503;28;20067;-68
2023/06/29 06:26:33;;;;;;;10.60;4.38;;;;;;;22.84;53.59;100501.63;4188573;28;20123;-68
2023/06/29 06:28:36;;;;;;;8.45;4.00;;;;;;;22.93;53.39;100505.75;4174274;28;20053;-68
2023/06/29 06:30:39;;;;;;;10.38;4.68;;;;;;;23.01;52.14;100501.03;4191589;28;20039;-68
2023/06/29 06:32:42;;;;;;;7.85;4.22;;;;;;;23.02;51.74;100497.44;4187194;28;20060;-68
2023/06/29 06:34:45;;;;;;;6.63;4.45;;;;;;;23.08;50.96;100492.84;4191098;28;20033;-68
2023/06/29 06:36:48;;;;;;;11.57;4.30;;;;;;;23.20;51.42;100500.38;4148170;28;20467;-68
2023/06/29 06:38:53;;;;;;;10.35;4.90;;;;;;;23.30;49.23;100496.44;4201097;22;20022;-62
2023/06/29 06:40:55;;;;;;;6.35;4.07;;;;;;;23.20;49.03;100500.38;4191077;28;20489;-63
2023/06/29 06:42:58;;;;;;;9.05;4.63;;;;;;;23.24;49.20;100480.75;4190767;28;20042;-62
2023/06/29 06:45:05;;;;;;;7.78;3.92;;;;;;;23.18;49.91;100487.16;4171891;28;20577;-63
2023/06/29 06:47:08;;;;;;;;;;;;;;;23.21;50.60;100491.50;4191467;28;20037;-63
2023/06/29 06:49:10;;;;;;;8.85;3.72;;;;;;;23.26;50.46;100486.00;4182286;28;19921;-62
2023/06/29 06:51:13;;;;;;;7.72;3.65;;;;;;;23.26;50.38;100492.19;4188976;28;20075;-63
2023/06/29 06:53:16;;;;;;;9.85;3.97;;;;;;;23.40;50.46;100493.44;4192061;28;20176;-63
2023/06/29 06:55:20;;;;;;;12.25;3.97;;;;;;;23.47;50.91;100492.28;4176971;28;20463;-63
2023/06/29 06:57:23;;;;;;;9.27;3.22;;;;;;;23.55;50.56;100495.50;4168436;28;20041;-63
2023/06/29 06:59:26;;;;;;;9.02;3.72;;;;;;;23.64;50.18;100499.56;4189844;28;20402;-63
2023/06/29 07:01:29;;;;;;;7.97;3.28;;;;;;;23.63;48.80;100496.06;4183517;28;20033;-63
2023/06/29 07:03:32;;;;;;;4.80;2.60;;;;;;;23.73;48.66;100493.03;4168873;28;20250;-63
2023/06/29 07:05:36;;;;;;;5.15;2.83;;;;;;;23.86;48.32;100494.31;4191096;28;20033;-63
2023/06/29 07:07:39;;;;;;;9.30;3.30;;;;;;;23.96;47.81;100485.06;4188608;28;20135;-64
2023/06/29 07:09:42;;;;;;;8.00;2.92;;;;;;;24.05;47.42;100489.97;4173985;28;20037;-63
2023/06/29 07:11:46;;;;;;;5.05;2.67;;;;;;;24.18;47.18;100486.78;4190491;28;20040;-62
2023/06/29 07:13:49;;;;;;;10.15;3.30;;;;;;;24.28;45.92;100487.28;4192335;28;20397;-62
2023/06/29 07:15:51;;;;;;;8.93;3.45;;;;;;;24.33;45.89;100488.81;4187988;28;20095;-62
2023/06/29 07:17:54;;;;;;;5.60;3.40;;;;;;;24.43;45.75;100481.31;4177979;28;20068;-62
2023/06/29 07:19:57;;;;;;;6.03;3.03;;;;;;;24.51;46.15;100480.97;4186964;28;20426;-63
2023/06/29 07:22:03;;;;;;;9.20;2.95;;;;;;;24.70;46.13;100483.72;4184126;28;20051;-63
2023/06/29 07:24:10;;;;;;;8.30;3.03;;;;;;;24.77;46.42;100476.34;4184255;28;20481;-62
2023/06/29 07:26:13;;;;;;;6.88;3.22;;;;;;;24.80;45.78;100473.53;4172897;28;20495;-62
2023/06/29 07:28:17;;;;;;;7.05;3.20;;;;;;;24.66;45.47;100475.03;4172807;28;20056;-62
2023/06/29 07:30:20;;;;;;;;;;;;;;;24.51;45.69;100475.66;4181371;28;20036;-63
2023/06/29 07:32:23;;;;;;;6.45;2.95;;;;;;;24.48;46.05;100470.47;4164935;28;19928;-62
2023/06/29 07:34:26;;;;;;;7.57;3.38;;;;;;;24.62;45.28;100473.44;4184896;28;20398;-62
2023/06/29 07:36:29;;;;;;;11.43;3.67;;;;;;;24.65;44.64;100465.31;4171826;28;20092;-62
2023/06/29 07:38:32;;;;;;;5.80;2.78;;;;;;;24.58;45.16;100472.66;4185282;28;20033;-62
2023/06/29 07:40:35;;;;;;;7.88;2.88;;;;;;;24.52;45.61;100477.41;4188859;28;20036;-63
2023/06/29 07:42:38;;;;;;;7.40;3.22;;;;;;;24.46;45.56;100470.53;4168976;28;20720;-63
2023/06/29 07:44:43;;;;;;;3.38;2.30;;;;;;;24.39;45.94;100475.25;4167394;28;20105;-63
2023/06/29 07:46:46;;;;;;;8.93;3.45;;;;;;;24.38;45.66;100470.84;4188510;28;20037;-63
2023/06/29 07:48:50;;;;;;;6.22;3.10;;;;;;;24.36;46.27;100470.06;4186755;28;20055;-63
2023/06/29 07:50:53;;;;;;;6.53;2.47;;;;;;;24.36;46.15;100472.72;4194320;28;20465;-63
2023/06/29 07:52:56;;;;;;;6.38;2.88;;;;;;;24.43;46.73;100468.03;4168525;28;20053;-63
2023/06/29 07:54:59;;;;;;;4.82;2.58;;;;;;;24.50;46.84;100468.59;4187420;28;20104;-63
2023/06/29 07:57:05;;;;;;;5.00;2.92;;;;;;;24.54;46.29;100470.19;4190162;28;20044;-63
2023/06/29 07:59:11;;;;;;;6.75;3.20;;;;;;;24.50;45.88;100471.25;4188008;28;20040;-63
2023/06/29 08:01:18;;;;;;;6.13;2.72;;;;;;;24.48;45.83;100470.47;4169768;28;20040;-63
2023/06/29 08:03:20;;;;;;;9.52;3.10;;;;;;;24.50;45.63;100463.28;4169581;28;20037;-63
2023/06/29 08:05:23;;;;;;;7.30;3.13;;;;;;;24.53;45.97;100471.13;4184245;28;20041;-63
2023/06/29 08:07:29;;;;;;;10.68;3.00;;;;;;;24.60;45.87;100463.78;4187137;28;20036;-63
2023/06/29 08:09:32;;;;;;;6.25;3.13;;;;;;;24.69;45.88;100466.03;4166765;28;20040;-63
2023/06/29 08:11:35;;;;;;;9.90;4.18;;;;;;;24.73;45.15;100459.66;4184288;28;20569;-64
2023/06/29 08:13:38;;;;;;;8.45;3.97;;;;;;;24.70;44.58;100455.31;4182373;28;20040;-63
2023/06/29 08:15:41;;;;;;;7.97;3.72;;;;;;;24.71;44.77;100465.03;4152693;28;20296;-63
2023/06/29 08:17:45;;;;;;;7.15;3.35;;;;;;;24.81;44.29;100461.94;4189203;28;20037;-63
2023/06/29 08:19:48;;;;;;;6.28;3.17;;;;;;;24.88;44.36;100460.75;4181255;28;20130;-63
2023/06/29 08:21:55;;;;;;;7.50;3.42;;;;;;;24.90;44.91;100461.56;4181220;28;20041;-63
2023/06/29 08:23:58;;;;;;;8.05;3.10;;;;;;;25.02;44.70;100460.97;4185762;28;20055;-64
2023/06/29 08:26:01;;;;;;;9.80;3.60;;;;;;;25.13;44.56;100456.97;4184761;28;20410;-63
2023/06/29 08:28:04;;;;;;;7.00;4.00;;;;;;;25.20;43.38;100459.28;4169340;28;20048;-63
2023/06/29 08:30:08;;;;;;;6.40;3.25;;;;;;;25.24;44.04;100455.50;4171143;28;20124;-63
2023/06/29 08:32:11;;;;;;;7.03;3.08;;;;;;;25.29;44.32;100454.44;4184577;28;20191;-63
2023/06/29 08:34:15;;;;;;;8.50;3.45;;;;;;;25.30;43.63;100454.38;4161493;28;20042;-63
2023/06/29 08:36:18;;;;;;;;;;;;;;;25.26;43.91;100452.78;4183569;28;20037;-63
2023/06/29 08:38:21;;;;;;;8.38;3.45;;;;;;;25.33;43.53;100456.06;4169372;28;20643;-63
2023/06/29 08:40:26;;;;;;;7.13;2.88;;;;;;;25.46;42.88;100459.84;4188817;28;20057;-63
2023/06/29 08:42:29;;;;;;;5.72;2.83;;;;;;;25.63;43.24;100445.75;4187441;28;20123;-63
2023/06/29 08:44:33;;;;;;;8.07;3.20;;;;;;;25.55;42.82;100453.22;4186747;28;20028;-63
2023/06/29 08:46:38;;;;;;;5.45;2.63;;;;;;;25.43;43.71;100454.69;4181870;28;20086;-63
2023/06/29 08:48:44;;;;;;;6.55;3.10;;;;;;;25.26;43.28;100452.78;4189142;28;20044;-63
2023/06/29 08:50:54;;;;;;;5.90;3.00;;;;;;;25.32;43.83;100454.31;4173959;28;20100;-63
2023/06/29 08:52:57;;;;;;;7.60;3.17;;;;;;;25.47;43.22;100445.63;4185461;28;20115;-63
2023/06/29 08:55:01;;;;;;;6.90;3.13;;;;;;;25.68;42.24;100443.69;4179293;28;20045;-63
2023/06/29 08:57:06;;;;;;;6.10;2.60;;;;;;;25.67;42.70;100442.00;4166893;28;20139;-63
2023/06/29 08:59:09;;;;;;;7.32;2.38;;;;;;;25.60;42.55;100440.56;4170960;28;20037;-63
2023/06/29 09:01:12;;;;;;;7.30;3.15;;;;;;;25.52;42.57;100445.38;4184616;28;20043;-63
2023/06/29 09:03:17;;;;;;;8.15;3.42;;;;;;;25.45;42.65;100436.81;4167681;28;20037;-63
2023/06/29 09:05:21;;;;;;;6.00;2.28;;;;;;;25.42;43.25;100439.63;4191697;28;20425;-63
2023/06/29 09:07:25;;;;;;;;;;;;;;;25.32;43.11;100441.03;4183302;28;20037;-63
2023/06/29 09:09:28;;;;;;;5.00;2.85;;;;;;;25.19;42.62;100446.03;4175263;28;19931;-63
2023/06/29 09:11:35;;;;;;;7.50;2.97;;;;;;;25.21;42.17;100442.34;4188281;28;20493;-63
2023/06/29 09:13:38;;;;;;;8.20;2.65;;;;;;;25.28;41.86;100440.28;4193690;28;20041;-63
2023/06/29 09:15:41;;;;;;;5.32;2.45;;;;;;;25.49;41.52;100445.53;4191158;28;20460;-63
2023/06/29 09:17:45;;;;;;;4.50;2.57;;;;;;;25.71;41.55;100430.22;4188748;28;20080;-63
2023/06/29 09:19:54;;;;;;;5.75;2.70;;;;;;;25.98;41.64;100427.13;4194061;28;20771;-63
2023/06/29 09:21:58;;;;;;;5.85;2.72;;;;;;;26.06;40.59;100422.28;4188551;28;20039;-63
2023/06/29 09:24:03;;;;;;;;;;;;;;;26.05;41.97;100425.94;4169045;28;20120;-63
2023/06/29 09:26:08;;;;;;;5.57;2.38;;;;;;;25.99;42.29;100426.19;4169167;28;19925;-63
2023/06/29 09:28:12;;;;;;;6.20;2.75;;;;;;;25.88;41.70;100433.88;4193577;28;20398;-63
2023/06/29 09:30:18;;;;;;;6.03;2.95;;;;;;;25.79;41.35;100430.72;4185511;28;20120;-63
2023/06/29 09:32:21;;;;;;;5.15;2.83;;;;;;;25.74;41.88;100427.44;4186910;28;20033;-63
2023/06/29 09:34:26;;;;;;;4.03;2.28;;;;;;;25.71;42.65;100432.88;4167764;28;20053;-63
2023/06/29 09:36:29;;;;;;;8.07;2.92;;;;;;;25.67;41.92;100430.47;4185349;28;20037;-63